Time;durP1;ratioP1;P1;durP2;ratioP2;P2;SDS_P1;SDS_P2;PMS_P1;PMS_P2;Temp;Humidity;BMP_temperature;BMP_pressure;BME280_temperature;BME280_humidity;BME280_pressure;Samples;Min_cycle;Max_cycle;Signal;HPM_P1;HPM_P2
2022/12/13 00:00:53;;;;;;;51.30;25.10;;;;;;;0.49;65.73;99470.66;4993414;28;20133;-79
2022/12/13 00:03:20;;;;;;;52.38;26.13;;;;;;;0.49;65.25;99465.50;4993171;28;20596;-79
2022/12/13 00:05:46;;;;;;;58.25;26.48;;;;;;;0.48;65.90;99463.75;4993180;28;20089;-79
2022/12/13 00:08:12;;;;;;;54.90;26.02;;;;;;;0.47;65.64;99462.06;4993345;28;20168;-79
2022/12/13 00:10:39;;;;;;;50.30;24.88;;;;;;;0.45;66.10;99458.66;4976031;28;20073;-79
2022/12/13 00:13:05;;;;;;;52.90;26.17;;;;;;;0.44;66.19;99462.97;4993321;28;20084;-79
2022/12/13 00:15:31;;;;;;;55.58;27.25;;;;;;;0.43;65.97;99457.81;4992987;28;20112;-79
2022/12/13 00:17:58;;;;;;;53.10;25.95;;;;;;;0.42;65.81;99458.72;4993155;28;20516;-79
2022/12/13 00:20:24;;;;;;;54.72;25.23;;;;;;;0.41;66.11;99463.03;4975629;28;20149;-79
2022/12/13 00:22:51;;;;;;;54.35;25.63;;;;;;;0.42;65.59;99458.72;4993004;28;20133;-79
2022/12/13 00:25:20;;;;;;;55.97;26.40;;;;;;;0.41;65.38;99452.66;4992917;28;20177;-79
2022/12/13 00:27:46;;;;;;;52.30;25.45;;;;;;;0.39;65.75;99457.03;4975594;28;20078;-79
2022/12/13 00:30:12;;;;;;;48.85;24.20;;;;;;;0.40;66.00;99447.56;4992941;28;20085;-79
2022/12/13 00:32:39;;;;;;;52.53;24.33;;;;;;;0.37;66.24;99446.72;4992719;28;20050;-79
2022/12/13 00:35:05;;;;;;;55.88;24.63;;;;;;;0.38;65.95;99453.59;4992615;28;20054;-79
2022/12/13 00:37:31;;;;;;;50.33;24.52;;;;;;;0.38;66.19;99452.75;4992780;28;20164;-79
2022/12/13 00:39:58;;;;;;;50.22;25.42;;;;;;;0.36;65.72;99447.59;4975565;28;20145;-79
2022/12/13 00:42:24;;;;;;;53.15;24.90;;;;;;;0.35;65.68;99445.91;4992792;28;20442;-79
2022/12/13 00:44:50;;;;;;;49.78;24.13;;;;;;;0.35;65.85;99443.31;4992536;28;20137;-79
2022/12/13 00:47:19;;;;;;;49.85;24.90;;;;;;;0.35;66.16;99442.44;4992147;28;20141;-79
2022/12/13 00:49:46;;;;;;;51.22;24.80;;;;;;;0.34;65.50;99445.94;4992882;28;20413;-79
2022/12/13 00:52:12;;;;;;;54.17;25.27;;;;;;;0.32;65.87;99433.00;4992791;28;20104;-79
2022/12/13 00:54:38;;;;;;;49.92;25.35;;;;;;;0.31;65.40;99440.81;4992390;28;20535;-78
2022/12/13 00:57:05;;;;;;;52.13;24.35;;;;;;;0.28;65.46;99431.38;4992251;28;20125;-78
2022/12/13 00:59:31;;;;;;;48.60;23.15;;;;;;;0.28;65.69;99431.38;4975211;28;20062;-78
2022/12/13 01:01:57;;;;;;;47.35;22.70;;;;;;;0.27;65.64;99427.06;4992044;28;20085;-79
2022/12/13 01:04:24;;;;;;;44.25;22.38;;;;;;;0.27;65.88;99434.84;5000544;23;20081;-82
2022/12/13 01:06:50;;;;;;;47.55;24.13;;;;;;;0.28;66.01;99428.78;5011630;28;20149;-84
2022/12/13 01:09:25;;;;;;;52.38;23.70;;;;;;;0.27;66.12;99428.81;4995639;28;20462;-85
2022/12/13 01:11:56;;;;;;;48.78;22.77;;;;;;;0.27;65.83;99429.66;5012585;28;20511;-82
2022/12/13 01:14:23;;;;;;;47.70;22.23;;;;;;;0.29;65.41;99427.88;5012932;28;20061;-85
2022/12/13 01:16:49;;;;;;;47.97;22.55;;;;;;;0.28;65.51;99425.31;5012333;28;20060;-83
2022/12/13 01:19:16;;;;;;;46.50;24.23;;;;;;;0.27;65.58;99427.06;5012516;28;20116;-84
2022/12/13 01:21:42;;;;;;;49.40;23.75;;;;;;;0.25;65.89;99427.09;5012556;28;20065;-83
2022/12/13 01:24:09;;;;;;;46.47;23.15;;;;;;;0.25;65.44;99428.81;5007966;28;20059;-84
2022/12/13 01:26:36;;;;;;;48.38;23.13;;;;;;;0.23;65.52;99433.19;4994442;28;20605;-85
2022/12/13 01:29:04;;;;;;;47.00;23.08;;;;;;;0.21;65.57;99432.34;5012444;28;20053;-84
2022/12/13 01:31:31;;;;;;;54.47;25.48;;;;;;;0.19;65.48;99427.22;4995154;28;20108;-83
2022/12/13 01:33:57;;;;;;;47.22;23.63;;;;;;;0.16;65.58;99424.69;4994824;28;20050;-83
2022/12/13 01:36:24;;;;;;;47.88;24.50;;;;;;;0.15;66.01;99422.13;5012320;28;20066;-83
2022/12/13 01:38:53;;;;;;;44.40;22.58;;;;;;;0.14;65.56;99425.63;5012219;28;20157;-83
2022/12/13 01:41:24;;;;;;;43.83;22.13;;;;;;;0.12;65.59;99428.22;5011901;28;20422;-84
2022/12/13 01:43:59;;;;;;;45.28;20.70;;;;;;;0.11;66.02;99421.34;5012011;28;20462;-84
2022/12/13 01:46:26;;;;;;;41.30;19.90;;;;;;;0.12;65.70;99429.06;5011845;28;20132;-83
2022/12/13 01:49:16;;;;;;;45.28;22.05;;;;;;;0.12;65.80;99426.47;5012001;28;20049;-81
2022/12/13 01:52:01;;;;;;;47.05;21.88;;;;;;;0.13;65.55;99432.50;5012224;28;20061;-83
2022/12/13 01:54:35;;;;;;;45.00;21.77;;;;;;;0.14;65.49;99420.44;5012318;28;20062;-84
2022/12/13 01:57:05;;;;;;;51.13;23.25;;;;;;;0.13;65.69;99422.16;5011931;28;20069;-82
2022/12/13 01:59:38;;;;;;;46.30;22.75;;;;;;;0.12;66.46;99413.53;5012095;28;20054;-83
2022/12/13 02:02:06;;;;;;;51.65;23.17;;;;;;;0.14;65.49;99412.66;5011769;28;20057;-82
2022/12/13 02:04:39;;;;;;;45.78;24.35;;;;;;;0.12;66.16;99413.53;5011870;28;20058;-83
2022/12/13 02:07:13;;;;;;;45.70;22.50;;;;;;;0.13;65.79;99417.00;5011523;28;20145;-83
2022/12/13 02:09:51;;;;;;;49.40;23.13;;;;;;;0.13;65.89;99417.00;4995452;28;20438;-85
2022/12/13 02:12:25;;;;;;;49.50;23.30;;;;;;;0.14;66.11;99412.66;4994290;28;20061;-84
2022/12/13 02:15:00;;;;;;;50.75;23.45;;;;;;;0.12;65.66;99413.53;5011259;28;20065;-82
2022/12/13 02:17:58;;;;;;;40.35;20.35;;;;;;;0.10;66.90;99407.56;4993758;28;20144;-84
2022/12/13 02:20:41;;;;;;;40.83;21.30;;;;;;;0.13;66.79;99411.81;5011098;28;20061;-84
2022/12/13 02:23:46;;;;;;;42.92;20.98;;;;;;;0.15;66.73;99411.78;5011476;28;20049;-83
2022/12/13 02:26:51;;;;;;;41.88;20.20;;;;;;;0.16;66.46;99410.91;5011139;28;20145;-84
2022/12/13 02:29:55;;;;;;;38.47;20.05;;;;;;;0.17;66.47;99413.47;4993768;28;20053;-83
2022/12/13 02:32:32;;;;;;;41.58;20.17;;;;;;;0.19;65.90;99414.25;5011141;28;20133;-85
2022/12/13 02:35:10;;;;;;;38.40;19.42;;;;;;;0.20;65.52;99418.59;5011371;28;20054;-83
2022/12/13 02:38:05;;;;;;;40.90;20.77;;;;;;;0.18;65.78;99409.97;5011208;28;20058;-84
2022/12/13 02:40:38;;;;;;;45.33;21.98;;;;;;;0.22;65.78;99413.38;5011068;28;20515;-83
2022/12/13 02:43:19;;;;;;;37.40;19.95;;;;;;;0.22;65.76;99413.38;5011427;28;20058;-82
2022/12/13 02:45:53;;;;;;;42.45;20.17;;;;;;;0.23;65.65;99412.50;4993841;28;20053;-83
2022/12/13 02:48:27;;;;;;;43.03;21.27;;;;;;;0.23;65.63;99417.66;5010869;28;20049;-83
2022/12/13 02:50:57;;;;;;;45.83;21.83;;;;;;;0.24;65.35;99421.94;4993628;28;20650;-83
2022/12/13 02:53:25;;;;;;;42.63;21.13;;;;;;;0.23;65.47;99421.09;5010802;28;20144;-83
2022/12/13 02:55:51;;;;;;;41.13;20.17;;;;;;;0.24;65.40;99411.59;5011128;28;20100;-83
2022/12/13 02:58:22;;;;;;;39.35;20.42;;;;;;;0.23;65.79;99407.31;5010799;28;20064;-83
2022/12/13 03:01:18;;;;;;;41.05;19.40;;;;;;;0.20;66.07;99415.13;4993513;28;20076;-84
2022/12/13 03:04:10;;;;;;;37.85;19.88;;;;;;;0.23;65.27;99409.91;4994666;28;20065;-84
2022/12/13 03:06:49;;;;;;;41.25;19.38;;;;;;;0.21;66.07;99411.66;4993112;28;20069;-85
2022/12/13 03:09:39;;;;;;;44.28;21.95;;;;;;;0.18;65.99;99409.16;4993784;28;20120;-82
2022/12/13 03:15:37;;;;;;;50.90;23.13;;;;;;;0.12;65.75;99405.75;5009059;28;20057;-83
2022/12/13 03:18:22;;;;;;;50.97;24.05;;;;;;;0.12;65.37;99416.13;5003595;28;20061;-84
2022/12/13 03:20:56;;;;;;;44.17;22.45;;;;;;;0.07;65.51;99406.75;5010595;28;20439;-83
2022/12/13 03:23:23;;;;;;;48.45;23.27;;;;;;;0.03;65.21;99418.88;5010555;28;20109;-83
2022/12/13 03:25:53;;;;;;;43.70;21.58;;;;;;;-0.01;65.54;99415.53;5010426;28;20400;-85
2022/12/13 03:28:20;;;;;;;39.83;19.73;;;;;;;-0.04;65.35;99412.16;5010353;28;20060;-84
2022/12/13 03:30:47;;;;;;;43.92;20.52;;;;;;;-0.04;65.11;99409.56;5012613;28;20132;-84
2022/12/13 03:33:13;;;;;;;40.22;20.52;;;;;;;-0.05;65.16;99408.69;5014829;28;20057;-83
2022/12/13 03:35:41;;;;;;;44.03;20.75;;;;;;;-0.05;65.50;99410.41;5014370;28;20141;-84
2022/12/13 03:38:13;;;;;;;45.95;21.23;;;;;;;-0.04;65.46;99404.38;5014396;28;20090;-85
2022/12/13 03:40:54;;;;;;;48.63;22.90;;;;;;;-0.06;65.02;99409.59;4998151;28;20061;-84
2022/12/13 03:43:21;;;;;;;;;;;;;;;-0.06;66.29;99411.31;5014929;28;20066;-84
2022/12/13 03:45:50;;;;;;;51.40;22.08;;;;;;;-0.08;65.26;99408.75;5014264;28;19972;-85
2022/12/13 03:48:17;;;;;;;48.10;23.60;;;;;;;-0.11;65.76;99413.13;4996849;28;20061;-84
2022/12/13 03:50:49;;;;;;;33.00;16.90;;;;;;;-0.17;65.48;99407.19;4997388;28;20112;-81
2022/12/13 03:53:15;;;;;;;43.55;22.75;;;;;;;-0.21;65.49;99399.50;4996840;28;20426;-83
2022/12/13 03:56:01;;;;;;;43.42;20.55;;;;;;;-0.24;65.75;99402.16;4999380;28;20078;-84
2022/12/13 03:58:28;;;;;;;48.67;23.45;;;;;;;-0.27;65.51;99398.75;4996389;28;20054;-85
2022/12/13 04:01:03;;;;;;;43.75;21.75;;;;;;;-0.29;65.57;99399.66;5014242;28;20108;-84
2022/12/13 04:03:29;;;;;;;47.30;21.70;;;;;;;-0.32;65.75;99394.53;4996474;28;20064;-84
2022/12/13 04:05:56;;;;;;;43.97;21.63;;;;;;;-0.34;65.38;99406.66;5013955;28;20086;-84
2022/12/13 04:08:22;;;;;;;47.28;23.08;;;;;;;-0.36;65.76;99405.81;5013980;28;20104;-84
2022/12/13 04:10:49;;;;;;;45.78;21.58;;;;;;;-0.38;65.49;99407.59;4996469;28;20061;-83
2022/12/13 04:13:34;;;;;;;41.70;21.98;;;;;;;-0.39;65.74;99409.31;4996793;28;20069;-82
2022/12/13 04:16:01;;;;;;;42.03;20.85;;;;;;;-0.41;65.73;99411.91;4996202;28;20473;-85
2022/12/13 04:18:28;;;;;;;41.35;20.70;;;;;;;-0.41;65.79;99404.16;5013718;28;20414;-82
2022/12/13 04:20:56;;;;;;;39.10;20.13;;;;;;;-0.41;65.89;99398.16;4996455;28;20066;-83
2022/12/13 04:23:23;;;;;;;43.40;21.52;;;;;;;-0.42;65.95;99394.69;5013493;28;20483;-82
2022/12/13 04:25:50;;;;;;;47.45;22.33;;;;;;;-0.42;65.16;99394.69;5013493;28;20462;-85
2022/12/13 04:28:16;;;;;;;49.88;23.15;;;;;;;-0.44;65.81;99385.28;5013470;28;20581;-83
2022/12/13 04:30:49;;;;;;;54.70;23.60;;;;;;;-0.46;65.90;99393.03;5013322;28;20054;-81
2022/12/13 04:33:23;;;;;;;47.30;23.42;;;;;;;-0.49;65.58;99392.25;5013429;28;20058;-83
2022/12/13 04:35:49;;;;;;;49.83;23.50;;;;;;;-0.53;65.72;99389.72;5013433;28;20054;-85
2022/12/13 04:38:16;;;;;;;46.03;21.95;;;;;;;-0.55;65.54;99395.78;4995896;28;20060;-83
2022/12/13 04:40:42;;;;;;;55.58;23.42;;;;;;;-0.58;65.98;99399.28;5013320;28;20059;-85
2022/12/13 04:43:09;;;;;;;44.50;23.30;;;;;;;-0.59;65.58;99395.00;4995261;28;20053;-83
2022/12/13 04:45:35;;;;;;;45.25;22.55;;;;;;;-0.61;65.82;99390.72;5013043;28;20058;-83
2022/12/13 04:48:02;;;;;;;43.85;21.33;;;;;;;-0.61;65.44;99394.16;5012926;28;20050;-84
2022/12/13 04:50:29;;;;;;;47.53;22.00;;;;;;;-0.62;65.63;99391.59;4995859;28;20056;-83
2022/12/13 04:52:55;;;;;;;39.83;19.95;;;;;;;-0.63;65.73;99387.31;4995861;28;20058;-84
2022/12/13 04:55:22;;;;;;;40.17;21.38;;;;;;;-0.64;65.66;99388.19;4995935;28;20053;-83
2022/12/13 04:57:48;;;;;;;46.53;23.08;;;;;;;-0.68;65.36;99396.00;5012869;28;20108;-85
2022/12/13 05:00:15;;;;;;;50.78;23.10;;;;;;;-0.71;65.31;99392.63;5012791;28;20418;-82
2022/12/13 05:02:41;;;;;;;46.50;22.23;;;;;;;-0.75;65.51;99384.03;5012983;28;20049;-84
2022/12/13 05:05:09;;;;;;;46.13;21.83;;;;;;;-0.79;65.72;99385.84;5012715;28;20085;-84
2022/12/13 05:07:37;;;;;;;46.33;22.80;;;;;;;-0.83;65.57;99389.34;4995467;28;20141;-85
2022/12/13 05:10:09;;;;;;;47.30;22.30;;;;;;;-0.84;65.92;99381.63;5012869;28;20064;-84
2022/12/13 05:12:36;;;;;;;51.33;21.73;;;;;;;-0.88;65.66;99380.81;5012629;28;20069;-83
2022/12/13 05:15:02;;;;;;;47.58;22.30;;;;;;;-0.92;65.75;99385.19;5012738;28;20042;-82
2022/12/13 05:17:29;;;;;;;44.75;20.80;;;;;;;-0.93;65.88;99385.22;5012448;28;20058;-83
2022/12/13 05:19:56;;;;;;;53.60;21.95;;;;;;;-0.96;65.87;99380.09;5012690;28;20413;-83
2022/12/13 05:22:22;;;;;;;46.72;20.77;;;;;;;-0.98;66.10;99380.09;5012530;28;20069;-85
2022/12/13 05:24:49;;;;;;;43.83;19.63;;;;;;;-0.99;66.09;99370.66;4994916;28;20065;-83
2022/12/13 05:27:16;;;;;;;47.58;21.05;;;;;;;-1.00;65.73;99374.13;5012087;28;20506;-83
2022/12/13 05:29:51;;;;;;;39.92;19.63;;;;;;;-0.99;65.71;99372.38;5012570;28;20058;-83
2022/12/13 05:32:37;;;;;;;44.47;19.02;;;;;;;-0.97;66.07;99365.47;5012402;28;20057;-83
2022/12/13 05:35:13;;;;;;;40.50;19.95;;;;;;;-0.96;65.61;99362.00;5012386;28;20153;-82
2022/12/13 05:37:48;;;;;;;46.95;20.40;;;;;;;-0.96;65.57;99364.59;5012505;28;20049;-83
2022/12/13 05:40:21;;;;;;;42.88;20.55;;;;;;;-0.97;65.50;99363.72;4995706;28;20054;-84
2022/12/13 05:42:48;;;;;;;46.03;20.42;;;;;;;-0.98;65.55;99358.56;5012205;28;20054;-82
2022/12/13 05:45:16;;;;;;;41.90;20.02;;;;;;;-1.01;65.39;99354.31;5012066;28;20064;-82
2022/12/13 05:47:44;;;;;;;54.25;24.13;;;;;;;-1.03;65.66;99360.38;4994482;28;20096;-84
2022/12/13 05:50:12;;;;;;;47.53;21.90;;;;;;;-1.08;65.36;99358.72;5011981;28;20149;-84
2022/12/13 05:52:39;;;;;;;45.55;22.02;;;;;;;-1.10;65.49;99357.03;5012025;28;20062;-84
2022/12/13 05:55:06;;;;;;;45.35;21.35;;;;;;;-1.14;65.38;99357.97;5010969;28;20116;-84
2022/12/13 05:57:32;;;;;;;47.50;22.23;;;;;;;-1.17;65.57;99358.88;5011949;28;20061;-84
2022/12/13 05:59:59;;;;;;;43.78;22.33;;;;;;;-1.20;65.51;99353.75;4994561;28;20054;-85
2022/12/13 06:02:26;;;;;;;48.38;22.13;;;;;;;-1.24;65.64;99355.53;4994277;28;20587;-83
2022/12/13 06:04:53;;;;;;;53.45;23.95;;;;;;;-1.26;65.73;99353.84;5011752;28;20058;-82
2022/12/13 06:07:20;;;;;;;47.17;23.50;;;;;;;-1.29;65.74;99352.16;5011380;28;20487;-84
2022/12/13 06:09:46;;;;;;;48.60;22.85;;;;;;;-1.31;65.78;99361.66;5011691;28;20470;-84
2022/12/13 06:12:15;;;;;;;51.15;23.63;;;;;;;-1.34;66.13;99365.13;5011647;28;20054;-84
2022/12/13 06:14:58;;;;;;;49.13;21.98;;;;;;;-1.36;66.24;99366.03;5011395;28;20054;-83
2022/12/13 06:17:34;;;;;;;47.03;22.45;;;;;;;-1.38;66.64;99366.06;5011588;28;20049;-83
2022/12/13 06:20:02;;;;;;;44.85;22.17;;;;;;;-1.38;66.54;99360.06;5011491;28;20053;-83
2022/12/13 06:22:49;;;;;;;43.85;21.23;;;;;;;-1.38;66.15;99368.63;5011542;28;20054;-82
2022/12/13 06:25:16;;;;;;;43.05;22.27;;;;;;;-1.39;66.11;99372.09;5011177;28;20065;-84
2022/12/13 06:27:57;;;;;;;43.80;22.05;;;;;;;-1.38;66.27;99376.38;5011338;28;20058;-84
2022/12/13 06:30:30;;;;;;;45.67;20.10;;;;;;;-1.38;66.15;99367.81;5010901;28;20054;-84
2022/12/13 06:32:58;;;;;;;42.75;22.77;;;;;;;-1.38;66.19;99373.78;5008571;28;20145;-84
2022/12/13 06:35:25;;;;;;;42.05;21.88;;;;;;;-1.38;66.16;99378.97;5010979;28;20104;-82
2022/12/13 06:37:55;;;;;;;45.65;22.10;;;;;;;-1.38;66.39;99373.78;5011219;28;20061;-84
2022/12/13 06:40:30;;;;;;;42.42;21.15;;;;;;;-1.39;66.35;99373.84;5010591;28;20058;-85
2022/12/13 06:42:57;;;;;;;39.33;20.23;;;;;;;-1.38;65.89;99367.81;4990065;28;20058;-84
2022/12/13 06:45:24;;;;;;;48.63;21.38;;;;;;;-1.37;66.13;99372.94;5005585;28;20053;-85
2022/12/13 06:47:51;;;;;;;49.53;22.30;;;;;;;-1.38;66.38;99368.63;5009484;28;20822;-84
2022/12/13 06:50:17;;;;;;;45.88;22.63;;;;;;;-1.37;66.11;99377.25;5010747;28;20539;-84
2022/12/13 06:52:47;;;;;;;42.97;21.38;;;;;;;-1.38;66.59;99378.13;5009301;28;20058;-86
2022/12/13 06:55:14;;;;;;;44.40;22.85;;;;;;;-1.37;66.15;99382.41;5008125;28;20063;-84
2022/12/13 06:57:49;;;;;;;39.70;20.90;;;;;;;-1.38;66.19;99380.72;5004271;28;20141;-82
2022/12/13 07:00:16;;;;;;;45.17;21.25;;;;;;;-1.37;66.12;99377.25;5006813;28;20058;-85
2022/12/13 07:02:54;;;;;;;45.10;21.90;;;;;;;-1.38;66.41;99384.13;4998743;28;20058;-82
2022/12/13 07:05:21;;;;;;;42.30;21.33;;;;;;;-1.37;66.19;99378.09;3945392;23;20531;-78
2022/12/13 07:07:48;;;;;;;39.55;19.17;;;;;;;-1.35;65.86;99385.84;5007637;28;20089;-78
2022/12/13 07:10:14;;;;;;;43.17;19.55;;;;;;;-1.35;66.18;99384.09;5008062;28;20057;-78
2022/12/13 07:12:49;;;;;;;35.85;19.25;;;;;;;-1.33;66.39;99381.50;5007899;28;20061;-78
2022/12/13 07:15:15;;;;;;;38.85;19.65;;;;;;;-1.31;66.06;99390.06;5004212;28;20139;-79
2022/12/13 07:17:41;;;;;;;42.10;19.23;;;;;;;-1.29;66.02;99392.63;5008361;28;20112;-78
2022/12/13 07:20:09;;;;;;;37.17;18.70;;;;;;;-1.29;65.97;99393.50;5008143;28;20137;-78
2022/12/13 07:22:36;;;;;;;44.13;21.02;;;;;;;-1.31;65.79;99388.34;5008528;28;20136;-78
2022/12/13 07:25:12;;;;;;;44.55;20.48;;;;;;;-1.33;65.41;99384.06;5008646;28;20082;-78
2022/12/13 07:27:59;;;;;;;39.80;19.98;;;;;;;-1.33;65.32;99391.81;5008619;28;20100;-78
2022/12/13 07:30:29;;;;;;;37.72;19.30;;;;;;;-1.35;65.79;99396.16;5008527;28;20061;-78
2022/12/13 07:32:55;;;;;;;36.92;17.77;;;;;;;-1.37;65.56;99387.56;5009522;28;20054;-78
2022/12/13 07:35:22;;;;;;;38.47;18.25;;;;;;;-1.37;65.53;99385.84;5009330;28;20058;-78
2022/12/13 07:37:48;;;;;;;41.00;18.65;;;;;;;-1.38;65.40;99380.72;5009373;28;20085;-78
2022/12/13 07:40:15;;;;;;;37.60;18.55;;;;;;;-1.38;65.59;99378.97;5008540;28;20085;-78
2022/12/13 07:42:48;;;;;;;39.33;20.02;;;;;;;-1.40;65.76;99383.31;5006680;28;20089;-78
2022/12/13 07:45:15;;;;;;;35.45;19.15;;;;;;;-1.37;65.23;99387.56;5002891;28;20046;-78
2022/12/13 07:47:41;;;;;;;35.40;18.35;;;;;;;-1.37;65.50;99387.56;5006551;28;20058;-79
2022/12/13 07:50:08;;;;;;;38.45;18.85;;;;;;;-1.38;65.26;99385.88;5008999;28;20081;-80
2022/12/13 07:52:50;;;;;;;36.28;18.23;;;;;;;-1.39;65.48;99381.59;4994049;28;20076;-79
2022/12/13 07:55:17;;;;;;;40.55;20.70;;;;;;;-1.41;65.61;99376.44;5008849;28;20505;-79
2022/12/13 07:57:48;;;;;;;35.38;18.25;;;;;;;-1.41;65.31;99378.16;5009147;28;20108;-79
2022/12/13 08:00:15;;;;;;;38.42;18.50;;;;;;;-1.42;65.65;99377.28;5005775;28;20089;-79
2022/12/13 08:02:41;;;;;;;35.30;17.80;;;;;;;-1.42;65.52;99376.47;5008981;28;20423;-79
2022/12/13 08:05:08;;;;;;;35.10;17.67;;;;;;;-1.39;65.60;99377.25;5008732;28;20085;-79
2022/12/13 08:07:52;;;;;;;37.08;18.40;;;;;;;-1.36;65.67;99373.78;5008970;28;20427;-79
2022/12/13 08:10:19;;;;;;;37.88;18.50;;;;;;;-1.32;66.10;99378.03;5009118;28;20053;-78
2022/12/13 08:12:46;;;;;;;36.75;19.02;;;;;;;-1.30;65.72;99373.72;5009117;28;20508;-78
2022/12/13 08:15:12;;;;;;;33.25;18.33;;;;;;;-1.27;65.90;99365.91;5008907;28;20137;-78
2022/12/13 08:17:39;;;;;;;41.20;21.40;;;;;;;-1.26;65.70;99375.38;5010612;28;20054;-78
2022/12/13 08:20:06;;;;;;;39.50;21.35;;;;;;;-1.26;65.34;99372.78;5012623;28;20069;-78
2022/12/13 08:22:33;;;;;;;37.03;20.15;;;;;;;-1.26;65.83;99377.09;5012507;28;20061;-78
2022/12/13 08:25:02;;;;;;;37.90;18.67;;;;;;;-1.26;65.56;99383.13;5012444;28;20424;-78
2022/12/13 08:27:28;;;;;;;38.17;19.33;;;;;;;-1.24;65.55;99378.78;4995026;28;20057;-80
2022/12/13 08:29:55;;;;;;;36.78;18.63;;;;;;;-1.22;65.82;99382.19;5012619;28;20484;-79
2022/12/13 08:32:22;;;;;;;41.58;19.60;;;;;;;-1.20;65.92;99383.03;5012434;28;20058;-79
2022/12/13 08:34:48;;;;;;;40.30;21.50;;;;;;;-1.17;65.92;99389.03;5012452;28;20054;-78
2022/12/13 08:37:15;;;;;;;36.50;18.60;;;;;;;-1.17;65.80;99379.53;4994868;28;20085;-78
2022/12/13 08:39:43;;;;;;;33.63;18.75;;;;;;;-1.14;65.75;99384.66;4994795;28;20570;-79
2022/12/13 08:42:12;;;;;;;39.17;19.73;;;;;;;-1.12;66.14;99384.66;5012321;28;20116;-79
2022/12/13 08:44:45;;;;;;;40.28;19.38;;;;;;;-1.09;65.90;99382.00;5012184;28;20049;-78
2022/12/13 08:47:12;;;;;;;36.63;18.50;;;;;;;-1.07;65.91;99378.53;5011896;28;20053;-79
2022/12/13 08:49:49;;;;;;;35.50;17.83;;;;;;;-0.99;65.99;99387.88;5012278;28;20089;-79
2022/12/13 08:52:15;;;;;;;35.15;18.90;;;;;;;-0.96;65.87;99387.84;5012062;28;20479;-79
2022/12/13 08:54:43;;;;;;;39.42;19.77;;;;;;;-0.90;66.41;99392.91;5008163;28;20487;-78
2022/12/13 08:57:09;;;;;;;35.13;18.42;;;;;;;-0.83;66.06;99385.91;5011345;28;20551;-79
2022/12/13 08:59:36;;;;;;;35.22;18.40;;;;;;;-0.79;66.04;99390.16;5011754;28;20084;-78
2022/12/13 09:02:02;;;;;;;39.13;19.33;;;;;;;-0.74;65.75;99392.66;5011940;28;20134;-79
2022/12/13 09:04:30;;;;;;;36.80;19.35;;;;;;;-0.71;65.88;99397.78;5011832;28;20112;-78
2022/12/13 09:06:57;;;;;;;35.88;18.80;;;;;;;-0.68;65.96;99398.59;4994207;28;20133;-78
2022/12/13 09:09:28;;;;;;;40.10;18.52;;;;;;;-0.66;65.53;99394.22;5011599;28;20419;-78
2022/12/13 09:11:54;;;;;;;39.97;19.10;;;;;;;-0.64;65.60;99395.97;5011835;28;20072;-79
2022/12/13 09:14:26;;;;;;;34.72;18.60;;;;;;;-0.63;65.73;99395.94;5011559;28;20056;-79
2022/12/13 09:16:59;;;;;;;40.80;19.23;;;;;;;-0.61;65.92;99396.75;5011583;28;20062;-78
2022/12/13 09:19:29;;;;;;;39.78;20.20;;;;;;;-0.59;65.95;99391.56;5011776;28;20054;-79
2022/12/13 09:22:03;;;;;;;35.47;18.80;;;;;;;-0.56;65.55;99400.09;5011739;28;20058;-78
2022/12/13 09:24:29;;;;;;;35.55;18.25;;;;;;;-0.53;65.84;99397.47;5011384;28;20100;-78
2022/12/13 09:27:02;;;;;;;;;;;;;;;-0.50;66.32;99404.31;5012151;28;20069;-78
2022/12/13 09:29:35;;;;;;;34.00;16.55;;;;;;;-0.44;65.65;99401.63;5011433;28;19976;-78
2022/12/13 09:32:02;;;;;;;33.35;18.40;;;;;;;-0.42;65.84;99414.53;5011439;28;20062;-78
2022/12/13 09:34:28;;;;;;;38.40;18.58;;;;;;;-0.40;65.92;99408.44;4993362;28;20416;-78
2022/12/13 09:36:55;;;;;;;35.83;18.98;;;;;;;-0.36;65.68;99419.59;5010689;28;20531;-78
2022/12/13 09:39:27;;;;;;;26.45;13.98;;;;;;;-0.34;65.74;99422.16;4994566;28;20058;-78
2022/12/13 09:41:56;;;;;;;42.72;21.30;;;;;;;-0.32;65.81;99425.56;5011365;28;20061;-78
2022/12/13 09:44:31;;;;;;;39.33;21.25;;;;;;;-0.33;65.34;99423.88;5011161;28;20053;-78
2022/12/13 09:47:26;;;;;;;36.08;19.20;;;;;;;-0.33;65.70;99426.47;5010709;28;20061;-77
2022/12/13 09:50:05;;;;;;;38.45;20.95;;;;;;;-0.32;65.38;99430.75;5009949;28;20515;-78
2022/12/13 09:52:37;;;;;;;37.97;20.80;;;;;;;-0.31;65.52;99435.03;5011131;28;20108;-78
2022/12/13 09:55:18;;;;;;;37.72;20.42;;;;;;;-0.32;66.04;99439.38;5010595;28;20073;-77
2022/12/13 09:57:44;;;;;;;42.30;21.35;;;;;;;-0.28;65.39;99434.97;5010685;28;20169;-78
2022/12/13 10:00:15;;;;;;;41.13;21.55;;;;;;;-0.28;66.03;99432.41;5010746;28;20084;-78
2022/12/13 10:02:48;;;;;;;36.95;19.63;;;;;;;-0.28;65.82;99429.81;5010556;28;20153;-77
2022/12/13 10:05:18;;;;;;;39.78;21.45;;;;;;;-0.24;65.87;99430.59;5009787;28;20507;-77
2022/12/13 10:07:51;;;;;;;38.70;20.70;;;;;;;-0.21;65.92;99436.59;5010055;28;20177;-78
2022/12/13 10:10:18;;;;;;;37.13;20.55;;;;;;;-0.18;66.05;99426.16;5010212;28;20500;-78
2022/12/13 10:12:51;;;;;;;35.15;19.92;;;;;;;-0.16;65.68;99427.00;5009891;28;20455;-78
2022/12/13 10:15:19;;;;;;;43.28;20.98;;;;;;;-0.11;66.30;99423.47;5009847;28;20108;-78
2022/12/13 10:17:48;;;;;;;37.53;20.05;;;;;;;-0.07;65.94;99425.13;5010514;28;20115;-78
2022/12/13 10:20:27;;;;;;;43.58;22.50;;;;;;;-0.04;65.80;99419.91;5010587;28;20058;-78
2022/12/13 10:22:53;;;;;;;44.45;21.55;;;;;;;0.00;65.88;99418.97;5010424;28;20140;-78
2022/12/13 10:25:49;;;;;;;40.92;21.23;;;;;;;0.02;65.94;99414.59;5010371;28;20057;-78
2022/12/13 10:28:23;;;;;;;38.35;21.02;;;;;;;0.06;65.71;99411.06;5010227;28;20090;-77
2022/12/13 10:30:50;;;;;;;39.38;19.15;;;;;;;0.10;65.84;99412.72;5010274;28;20053;-77
2022/12/13 10:33:23;;;;;;;37.88;20.77;;;;;;;0.12;66.35;99404.94;5010131;28;20085;-78
2022/12/13 10:36:05;;;;;;;41.42;20.50;;;;;;;0.18;66.09;99398.78;5009722;28;20081;-78
2022/12/13 10:38:36;;;;;;;38.88;20.25;;;;;;;0.25;66.40;99395.16;5009822;28;20112;-77
2022/12/13 10:41:33;;;;;;;37.67;18.88;;;;;;;0.29;65.83;99394.22;5009368;28;20089;-77
2022/12/13 10:44:07;;;;;;;37.15;18.23;;;;;;;0.36;66.02;99390.63;5009911;28;20144;-79
2022/12/13 10:46:33;;;;;;;39.15;19.50;;;;;;;0.44;65.64;99389.63;5009980;28;20140;-78
2022/12/13 10:49:15;;;;;;;35.75;19.48;;;;;;;0.47;65.94;99379.19;5010197;28;20054;-79
2022/12/13 10:51:42;;;;;;;36.25;19.30;;;;;;;0.54;66.02;99375.59;4992391;28;20499;-78
2022/12/13 10:54:28;;;;;;;36.90;20.17;;;;;;;0.59;66.07;99378.94;5009686;28;20137;-78
2022/12/13 10:57:06;;;;;;;35.22;18.42;;;;;;;0.68;65.42;99377.88;4993447;28;20054;-79
2022/12/13 10:59:37;;;;;;;36.47;19.27;;;;;;;0.72;65.62;99369.16;5009872;28;20088;-79
2022/12/13 11:02:26;;;;;;;34.83;18.23;;;;;;;0.76;66.24;99360.44;4992537;28;20104;-79
2022/12/13 11:04:52;;;;;;;32.97;17.83;;;;;;;0.87;66.37;99355.00;5009247;28;20065;-79
2022/12/13 11:07:23;;;;;;;32.38;18.45;;;;;;;0.96;66.53;99356.50;5009175;28;20144;-78
2022/12/13 11:09:49;;;;;;;38.67;20.05;;;;;;;1.13;67.35;99356.06;5010007;28;20152;-79
2022/12/13 11:12:24;;;;;;;35.85;18.75;;;;;;;1.35;68.29;99346.94;5009561;28;20089;-79
2022/12/13 11:14:58;;;;;;;35.67;19.95;;;;;;;1.71;70.48;99343.41;5009383;28;20058;-79
2022/12/13 11:17:29;;;;;;;31.77;19.20;;;;;;;2.20;73.00;99342.00;5009380;28;20508;-78
2022/12/13 11:19:59;;;;;;;34.58;19.25;;;;;;;2.84;75.52;99332.28;5009827;28;20145;-78
2022/12/13 11:22:36;;;;;;;33.45;19.95;;;;;;;3.65;73.62;99331.38;5009827;28;20054;-79
2022/12/13 11:25:20;;;;;;;28.42;18.08;;;;;;;4.53;76.51;99316.00;5009304;28;20104;-79
2022/12/13 11:28:01;;;;;;;28.30;18.10;;;;;;;5.54;75.94;99319.72;5009276;28;20472;-79
2022/12/13 11:30:42;;;;;;;25.55;17.85;;;;;;;6.57;70.07;99315.16;5009722;28;20054;-79
2022/12/13 11:33:27;;;;;;;25.42;17.55;;;;;;;7.56;67.65;99316.44;5009521;28;20081;-79
2022/12/13 11:36:13;;;;;;;25.05;17.63;;;;;;;8.48;64.70;99311.56;5009289;28;20050;-79
2022/12/13 11:38:51;;;;;;;24.73;16.85;;;;;;;9.34;61.73;99304.13;5009477;28;20061;-79
2022/12/13 11:41:36;;;;;;;24.33;17.45;;;;;;;10.05;58.56;99301.66;5009455;28;20050;-79
2022/12/13 11:44:12;;;;;;;23.05;17.45;;;;;;;10.64;58.01;99305.03;5009338;28;20140;-79